createdAt,value
2018-03-26T00:00:17.350Z,54.66
2018-03-26T00:01:17.486Z,54.66
2018-03-26T00:02:17.627Z,54.56
2018-03-26T00:03:17.779Z,54.56
2018-03-26T00:04:17.920Z,54.56
2018-03-26T00:05:18.051Z,54.56
2018-03-26T00:06:18.188Z,54.75
2018-03-26T00:07:18.362Z,54.18
2018-03-26T00:08:18.492Z,54.75
2018-03-26T00:09:18.627Z,54.66
2018-03-26T00:10:18.759Z,54.47
2018-03-26T00:11:18.915Z,54.47
2018-03-26T00:12:19.045Z,54.27
2018-03-26T00:13:19.181Z,54.27
2018-03-26T00:14:19.340Z,53.99
2018-03-26T00:15:19.478Z,54.47
2018-03-26T00:16:19.609Z,54.75
2018-03-26T00:17:19.758Z,54.18
2018-03-26T00:18:19.894Z,53.70
2018-03-26T00:19:20.026Z,53.89
2018-03-26T00:20:20.163Z,53.80
2018-03-26T00:21:20.304Z,54.47
2018-03-26T00:22:20.462Z,54.37
2018-03-26T00:23:20.592Z,54.56
2018-03-26T00:24:20.730Z,54.66
2018-03-26T00:25:20.872Z,54.37
2018-03-26T00:26:21.008Z,54.37
2018-03-26T00:27:21.179Z,54.47
2018-03-26T00:28:21.316Z,54.27
2018-03-26T00:29:21.458Z,54.08
2018-03-26T00:30:21.626Z,54.66
2018-03-26T00:31:21.756Z,54.47
2018-03-26T00:32:21.892Z,55.04
2018-03-26T00:33:22.219Z,55.32
2018-03-26T00:34:22.102Z,54.85
2018-03-26T00:35:22.240Z,55.51
2018-03-26T00:36:22.393Z,54.37
2018-03-26T00:37:22.520Z,54.47
2018-03-26T00:38:22.657Z,54.85
2018-03-26T00:39:22.810Z,55.13
2018-03-26T00:40:22.973Z,55.90
2018-03-26T00:41:23.097Z,55.90
2018-03-26T00:42:23.242Z,55.13
2018-03-26T00:43:23.394Z,55.22
2018-03-26T00:44:23.524Z,55.22
2018-03-26T00:45:23.659Z,55.22
2018-03-26T00:46:23.796Z,55.22
2018-03-26T00:47:23.960Z,54.91
2018-03-26T00:48:24.095Z,55.01
2018-03-26T00:49:24.232Z,55.29
2018-03-26T00:50:24.392Z,55.49
2018-03-26T00:51:24.527Z,55.13
2018-03-26T00:52:24.659Z,55.32
2018-03-26T00:53:24.789Z,54.85
2018-03-26T00:54:24.988Z,54.85
2018-03-26T00:55:25.090Z,54.56
2018-03-26T00:56:25.241Z,54.66
2018-03-26T00:57:25.378Z,54.53
2018-03-26T00:58:25.530Z,54.44
2018-03-26T00:59:25.688Z,54.47
2018-03-26T01:00:25.799Z,54.35
2018-03-26T01:01:25.939Z,54.35
2018-03-26T01:02:26.075Z,54.53
2018-03-26T01:03:26.206Z,54.53
2018-03-26T01:04:26.363Z,54.25
2018-03-26T01:05:26.491Z,54.35
2018-03-26T01:06:38.997Z,54.15
2018-03-26T01:07:26.846Z,54.15
2018-03-26T01:08:26.981Z,54.63
2018-03-26T01:09:27.120Z,54.06
2018-03-26T01:10:27.249Z,54.53
2018-03-26T01:11:27.414Z,54.72
2018-03-26T01:12:27.539Z,54.82
2018-03-26T01:13:27.681Z,54.53
2018-03-26T01:14:27.819Z,54.35
2018-03-26T01:15:28.000Z,53.96
2018-03-26T01:16:28.131Z,53.96
2018-03-26T01:17:28.270Z,54.63
2018-03-26T01:18:28.401Z,54.15
2018-03-26T01:19:28.561Z,54.44
2018-03-26T01:20:28.699Z,54.25
2018-03-26T01:21:28.832Z,54.72
2018-03-26T01:22:28.971Z,54.06
2018-03-26T01:23:29.096Z,54.44
2018-03-26T01:24:29.230Z,54.06
2018-03-26T01:25:29.361Z,54.72
2018-03-26T01:26:29.518Z,54.06
2018-03-26T01:27:29.660Z,54.72
2018-03-26T01:28:29.833Z,54.44
2018-03-26T01:29:29.982Z,54.72
2018-03-26T01:30:30.121Z,54.63
2018-03-26T01:31:30.259Z,54.44
2018-03-26T01:32:30.420Z,55.29
2018-03-26T01:33:30.561Z,55.20
2018-03-26T01:34:30.703Z,55.10
2018-03-26T01:35:30.848Z,55.20
2018-03-26T01:36:31.004Z,55.20
2018-03-26T01:37:31.137Z,55.10
2018-03-26T01:38:31.266Z,55.01
2018-03-26T01:39:31.408Z,55.20
2018-03-26T01:40:31.564Z,55.01
2018-03-26T01:41:31.693Z,55.96
2018-03-26T01:42:31.835Z,55.77
2018-03-26T01:43:31.978Z,55.49
2018-03-26T01:44:32.109Z,55.49
2018-03-26T01:45:32.248Z,56.05
2018-03-26T01:46:32.385Z,55.96
2018-03-26T01:47:32.522Z,56.03
2018-03-26T01:48:32.659Z,56.05
2018-03-26T01:49:32.804Z,55.65
2018-03-26T01:50:32.931Z,55.87
2018-03-26T01:51:33.074Z,55.87
2018-03-26T01:52:33.209Z,55.87
2018-03-26T01:53:33.346Z,55.83
2018-03-26T01:54:33.481Z,56.05
2018-03-26T01:55:33.618Z,56.03
2018-03-26T01:56:33.759Z,56.51
2018-03-26T01:57:33.896Z,56.22
2018-03-26T01:58:34.029Z,56.22
2018-03-26T01:59:34.169Z,57.07
2018-03-26T02:00:34.303Z,56.98
2018-03-26T02:01:34.442Z,56.79
2018-03-26T02:02:34.579Z,56.88
2018-03-26T02:03:34.718Z,57.26
2018-03-26T02:04:34.858Z,57.07
2018-03-26T02:05:35.000Z,56.88
2018-03-26T02:06:35.131Z,57.07
2018-03-26T02:07:35.268Z,56.51
2018-03-26T02:08:35.408Z,56.51
2018-03-26T02:09:35.551Z,56.12
2018-03-26T02:10:35.685Z,56.12
2018-03-26T02:11:35.822Z,56.60
2018-03-26T02:12:35.966Z,56.31
2018-03-26T02:13:36.104Z,56.03
2018-03-26T02:14:36.250Z,55.83
2018-03-26T02:15:36.409Z,55.74
2018-03-26T02:16:36.556Z,55.83
2018-03-26T02:17:36.698Z,55.74
2018-03-26T02:18:36.830Z,56.03
2018-03-26T02:19:36.966Z,55.65
2018-03-26T02:20:37.104Z,56.03
2018-03-26T02:21:37.241Z,55.83
2018-03-26T02:22:37.374Z,56.03
2018-03-26T02:23:37.518Z,56.03
2018-03-26T02:24:37.651Z,56.12
2018-03-26T02:25:37.786Z,55.74
2018-03-26T02:26:37.958Z,55.65
2018-03-26T02:27:38.053Z,55.83
2018-03-26T02:28:38.187Z,55.83
2018-03-26T02:29:38.324Z,55.65
2018-03-26T02:30:38.473Z,55.93
2018-03-26T02:31:38.600Z,55.83
2018-03-26T02:32:38.740Z,55.65
2018-03-26T02:33:38.871Z,55.74
2018-03-26T02:34:39.011Z,55.74
2018-03-26T02:35:39.147Z,55.74
2018-03-26T02:36:39.281Z,55.08
2018-03-26T02:37:39.420Z,55.17
2018-03-26T02:38:39.559Z,54.79
2018-03-26T02:39:39.690Z,55.17
2018-03-26T02:40:39.830Z,55.17
2018-03-26T02:41:39.970Z,55.36
2018-03-26T02:42:40.099Z,55.83
2018-03-26T02:43:40.248Z,55.83
2018-03-26T02:44:40.389Z,55.65
2018-03-26T02:45:40.528Z,55.36
2018-03-26T02:46:40.665Z,55.65
2018-03-26T02:47:40.798Z,55.46
2018-03-26T02:48:40.938Z,55.74
2018-03-26T02:49:41.079Z,56.03
2018-03-26T02:50:41.273Z,55.65
2018-03-26T02:51:41.402Z,56.29
2018-03-26T02:52:41.487Z,56.19
2018-03-26T02:53:42.196Z,56.57
2018-03-26T02:54:41.725Z,57.04
2018-03-26T02:55:41.858Z,56.95
2018-03-26T02:56:41.993Z,56.85
2018-03-26T02:57:42.131Z,56.76
2018-03-26T02:58:42.267Z,57.24
2018-03-26T02:59:42.420Z,57.14
2018-03-26T03:00:42.555Z,57.81
2018-03-26T03:01:42.703Z,57.59
2018-03-26T03:02:42.832Z,58.06
2018-03-26T03:03:43.036Z,58.25
2018-03-26T03:04:43.036Z,57.97
2018-03-26T03:05:43.177Z,58.16
2018-03-26T03:06:43.307Z,58.54
2018-03-26T03:07:43.494Z,58.44
2018-03-26T03:08:43.659Z,58.54
2018-03-26T03:09:43.787Z,58.54
2018-03-26T03:10:43.919Z,58.35
2018-03-26T03:11:44.055Z,58.54
2018-03-26T03:12:46.762Z,58.54
2018-03-26T03:13:44.279Z,58.44
2018-03-26T03:14:44.419Z,58.06
2018-03-26T03:15:44.554Z,58.83
2018-03-26T03:16:44.693Z,57.87
2018-03-26T03:17:44.936Z,58.06
2018-03-26T03:18:44.948Z,57.87
2018-03-26T03:19:45.086Z,57.78
2018-03-26T03:20:45.239Z,57.68
2018-03-26T03:21:45.384Z,57.21
2018-03-26T03:22:45.514Z,57.11
2018-03-26T03:23:45.681Z,57.04
2018-03-26T03:24:45.824Z,56.92
2018-03-26T03:25:45.950Z,57.14
2018-03-26T03:26:46.091Z,56.85
2018-03-26T03:27:46.256Z,57.04
2018-03-26T03:28:47.252Z,56.92
2018-03-26T03:29:46.520Z,56.63
2018-03-26T03:30:46.669Z,57.04
2018-03-26T03:31:46.810Z,56.95
2018-03-26T03:32:46.949Z,57.02
2018-03-26T03:33:47.121Z,56.85
2018-03-26T03:34:47.237Z,57.14
2018-03-26T03:35:47.372Z,56.85
2018-03-26T03:36:47.512Z,56.73
2018-03-26T03:37:47.648Z,57.40
2018-03-26T03:38:47.797Z,57.40
2018-03-26T03:39:47.930Z,57.68
2018-03-26T03:40:48.061Z,58.06
2018-03-26T03:41:49.129Z,57.87
2018-03-26T03:42:48.348Z,58.73
2018-03-26T03:43:48.479Z,59.27
2018-03-26T03:44:48.615Z,59.93
2018-03-26T03:45:48.752Z,60.60
2018-03-26T03:46:48.888Z,61.07
2018-03-26T03:47:49.029Z,60.95
2018-03-26T03:48:49.187Z,61.14
2018-03-26T03:49:49.320Z,61.36
2018-03-26T03:50:49.460Z,61.26
2018-03-26T03:51:49.593Z,60.88
2018-03-26T03:52:49.727Z,60.79
2018-03-26T03:53:49.865Z,60.22
2018-03-26T03:54:50.042Z,59.74
2018-03-26T03:55:50.168Z,59.46
2018-03-26T03:56:50.300Z,59.27
2018-03-26T03:57:50.459Z,59.17
2018-03-26T03:58:50.586Z,59.27
2018-03-26T03:59:50.723Z,58.89
2018-03-26T04:00:50.857Z,58.80
2018-03-26T04:01:50.998Z,58.13
2018-03-26T04:02:51.130Z,58.41
2018-03-26T04:03:51.262Z,58.51
2018-03-26T04:04:51.403Z,58.70
2018-03-26T04:05:51.537Z,58.32
2018-03-26T04:06:51.676Z,58.61
2018-03-26T04:07:51.809Z,58.13
2018-03-26T04:08:51.954Z,58.41
2018-03-26T04:09:52.104Z,59.05
2018-03-26T04:10:52.226Z,59.91
2018-03-26T04:11:52.365Z,59.81
2018-03-26T04:12:52.492Z,60.00
2018-03-26T04:13:52.626Z,60.76
2018-03-26T04:14:52.759Z,60.57
2018-03-26T04:15:52.898Z,61.42
2018-03-26T04:16:53.034Z,61.14
2018-03-26T04:17:53.205Z,61.23
2018-03-26T04:18:53.317Z,61.33
2018-03-26T04:19:53.449Z,61.33
2018-03-26T04:20:53.582Z,61.33
2018-03-26T04:21:53.723Z,61.33
2018-03-26T04:22:53.853Z,60.85
2018-03-26T04:23:53.998Z,60.95
2018-03-26T04:24:54.132Z,60.00
2018-03-26T04:25:54.294Z,59.71
2018-03-26T04:26:54.428Z,59.81
2018-03-26T04:27:54.550Z,60.00
2018-03-26T04:28:54.682Z,59.52
2018-03-26T04:29:54.844Z,59.62
2018-03-26T04:30:54.979Z,59.52
2018-03-26T04:31:55.104Z,59.52
2018-03-26T04:32:55.238Z,59.43
2018-03-26T04:33:55.386Z,59.62
2018-03-26T04:34:55.526Z,59.52
2018-03-26T04:35:55.716Z,59.65
2018-03-26T04:36:55.729Z,59.91
2018-03-26T04:37:55.868Z,59.84
2018-03-26T04:38:56.007Z,59.17
2018-03-26T04:39:56.138Z,59.52
2018-03-26T04:40:56.273Z,59.36
2018-03-26T04:41:56.423Z,59.93
2018-03-26T04:42:56.556Z,59.71
2018-03-26T04:43:56.684Z,59.81
2018-03-26T04:44:56.825Z,60.10
2018-03-26T04:45:56.982Z,61.23
2018-03-26T04:46:57.119Z,61.42
2018-03-26T04:47:57.256Z,61.14
2018-03-26T04:48:57.388Z,61.14
2018-03-26T04:49:57.545Z,60.95
2018-03-26T04:50:57.673Z,61.04
2018-03-26T04:51:57.801Z,61.04
2018-03-26T04:52:57.936Z,61.04
2018-03-26T04:53:58.071Z,61.14
2018-03-26T04:54:58.207Z,60.66
2018-03-26T04:55:58.347Z,60.85
2018-03-26T04:56:58.494Z,61.14
2018-03-26T04:57:58.626Z,61.42
2018-03-26T04:58:58.767Z,61.23
2018-03-26T04:59:58.899Z,61.23
2018-03-26T05:00:59.049Z,61.04
2018-03-26T05:01:59.184Z,61.36
2018-03-26T05:02:59.317Z,61.17
2018-03-26T05:03:59.450Z,61.33
2018-03-26T05:04:59.649Z,60.98
2018-03-26T05:05:59.779Z,60.98
2018-03-26T05:06:59.913Z,61.26
2018-03-26T05:08:00.059Z,60.69
2018-03-26T05:09:00.249Z,60.69
2018-03-26T05:10:00.354Z,60.98
2018-03-26T05:11:00.493Z,60.22
2018-03-26T05:12:00.625Z,60.22
2018-03-26T05:13:00.760Z,60.03
2018-03-26T05:14:00.899Z,59.84
2018-03-26T05:15:01.030Z,59.93
2018-03-26T05:16:01.172Z,59.74
2018-03-26T05:17:01.306Z,59.55
2018-03-26T05:18:01.498Z,59.65
2018-03-26T05:19:01.631Z,59.93
2018-03-26T05:20:01.799Z,60.03
2018-03-26T05:21:01.896Z,59.84
2018-03-26T05:22:02.060Z,59.84
2018-03-26T05:23:02.193Z,60.22
2018-03-26T05:24:02.322Z,60.98
2018-03-26T05:25:02.461Z,60.22
2018-03-26T05:26:02.612Z,60.13
2018-03-26T05:27:02.741Z,60.13
2018-03-26T05:28:02.875Z,59.84
2018-03-26T05:29:03.009Z,59.65
2018-03-26T05:30:03.172Z,59.36
2018-03-26T05:31:03.379Z,59.08
2018-03-26T05:32:03.441Z,58.70
2018-03-26T05:33:03.576Z,58.89
2018-03-26T05:34:03.705Z,59.93
2018-03-26T05:35:03.836Z,59.55
2018-03-26T05:36:03.971Z,59.93
2018-03-26T05:37:04.138Z,59.93
2018-03-26T05:38:04.276Z,59.84
2018-03-26T05:39:04.412Z,59.65
2018-03-26T05:40:04.567Z,59.74
2018-03-26T05:41:04.695Z,59.74
2018-03-26T05:42:04.826Z,59.84
2018-03-26T05:43:04.961Z,59.55
2018-03-26T05:44:05.118Z,59.36
2018-03-26T05:45:05.248Z,59.84
2018-03-26T05:46:05.381Z,59.46
2018-03-26T05:47:05.526Z,59.65
2018-03-26T05:48:05.663Z,59.65
2018-03-26T05:49:05.797Z,59.58
2018-03-26T05:50:05.936Z,59.49
2018-03-26T05:51:06.070Z,59.46
2018-03-26T05:52:06.701Z,59.20
2018-03-26T05:53:06.358Z,59.30
2018-03-26T05:54:06.503Z,59.30
2018-03-26T05:55:06.633Z,59.49
2018-03-26T05:56:06.767Z,59.58
2018-03-26T05:57:06.931Z,59.58
2018-03-26T05:58:07.049Z,59.77
2018-03-26T05:59:07.185Z,59.49
2018-03-26T06:00:07.321Z,59.46
2018-03-26T06:01:07.454Z,59.39
2018-03-26T06:02:07.598Z,60.06
2018-03-26T06:03:07.726Z,59.96
2018-03-26T06:04:07.875Z,59.96
2018-03-26T06:05:08.003Z,59.84
2018-03-26T06:06:08.144Z,59.77
2018-03-26T06:07:08.279Z,59.93
2018-03-26T06:08:08.454Z,60.03
2018-03-26T06:09:08.577Z,60.13
2018-03-26T06:10:08.710Z,59.93
2018-03-26T06:11:08.845Z,60.03
2018-03-26T06:12:08.997Z,60.16
2018-03-26T06:13:09.246Z,60.22
2018-03-26T06:14:09.262Z,61.17
2018-03-26T06:15:09.393Z,61.01
2018-03-26T06:16:09.545Z,60.88
2018-03-26T06:17:09.686Z,60.88
2018-03-26T06:18:09.820Z,60.22
2018-03-26T06:19:09.953Z,60.31
2018-03-26T06:20:10.088Z,60.82
2018-03-26T06:21:10.263Z,60.79
2018-03-26T06:22:10.401Z,60.82
2018-03-26T06:23:10.531Z,60.69
2018-03-26T06:24:10.667Z,61.10
2018-03-26T06:25:10.825Z,61.10
2018-03-26T06:26:10.953Z,61.07
2018-03-26T06:27:11.102Z,61.39
2018-03-26T06:28:11.261Z,61.07
2018-03-26T06:29:11.402Z,61.07
2018-03-26T06:30:11.540Z,61.29
2018-03-26T06:31:11.691Z,60.69
2018-03-26T06:32:11.830Z,60.60
2018-03-26T06:33:12.538Z,60.79
2018-03-26T06:34:12.092Z,60.79
2018-03-26T06:35:12.218Z,60.63
2018-03-26T06:36:13.029Z,60.98
2018-03-26T06:37:12.441Z,61.20
2018-03-26T06:38:12.574Z,61.17
2018-03-26T06:39:12.709Z,61.26
2018-03-26T06:40:12.859Z,61.26
2018-03-26T06:41:13.047Z,61.01
2018-03-26T06:42:13.158Z,61.20
2018-03-26T06:43:13.298Z,61.45
2018-03-26T06:44:13.485Z,61.20
2018-03-26T06:45:13.574Z,61.20
2018-03-26T06:46:13.767Z,60.72
2018-03-26T06:47:13.993Z,60.82
2018-03-26T06:48:14.034Z,60.82
2018-03-26T06:49:14.201Z,60.63
2018-03-26T06:50:14.334Z,60.63
2018-03-26T06:51:14.465Z,60.82
2018-03-26T06:52:14.604Z,60.72
2018-03-26T06:53:14.754Z,60.72
2018-03-26T06:54:14.885Z,60.82
2018-03-26T06:55:15.024Z,60.82
2018-03-26T06:56:15.157Z,60.82
2018-03-26T06:57:15.291Z,60.82
2018-03-26T06:58:15.449Z,60.82
2018-03-26T06:59:15.698Z,61.10
2018-03-26T07:00:15.710Z,61.10
2018-03-26T07:01:15.849Z,60.82
2018-03-26T07:02:15.983Z,60.72
2018-03-26T07:03:16.124Z,60.63
2018-03-26T07:04:16.288Z,60.82
2018-03-26T07:05:16.413Z,59.96
2018-03-26T07:06:16.547Z,59.87
2018-03-26T07:07:16.676Z,60.06
2018-03-26T07:08:16.848Z,60.06
2018-03-26T07:09:16.980Z,59.96
2018-03-26T07:10:17.116Z,60.16
2018-03-26T07:11:17.246Z,60.25
2018-03-26T07:12:17.444Z,60.25
2018-03-26T07:13:17.525Z,60.25
2018-03-26T07:14:17.672Z,59.87
2018-03-26T07:15:17.803Z,60.06
2018-03-26T07:16:17.960Z,60.06
2018-03-26T07:17:18.157Z,60.16
2018-03-26T07:18:18.298Z,59.87
2018-03-26T07:19:18.426Z,60.06
2018-03-26T07:20:18.585Z,60.82
2018-03-26T07:21:18.719Z,60.72
2018-03-26T07:22:18.856Z,60.63
2018-03-26T07:23:18.984Z,60.72
2018-03-26T07:24:19.145Z,60.72
2018-03-26T07:25:19.281Z,60.91
2018-03-26T07:26:19.417Z,61.10
2018-03-26T07:27:19.567Z,61.26
2018-03-26T07:28:19.778Z,62.02
2018-03-26T07:29:19.790Z,61.83
2018-03-26T07:30:19.919Z,62.97
2018-03-26T07:31:20.073Z,63.07
2018-03-26T07:32:20.210Z,62.97
2018-03-26T07:33:20.346Z,63.35
2018-03-26T07:34:20.481Z,62.78
2018-03-26T07:35:20.618Z,63.26
2018-03-26T07:36:20.750Z,62.97
2018-03-26T07:37:20.883Z,63.35
2018-03-26T07:38:21.015Z,62.97
2018-03-26T07:39:21.160Z,63.26
2018-03-26T07:40:21.288Z,63.26
2018-03-26T07:41:21.441Z,62.50
2018-03-26T07:42:21.586Z,62.50
2018-03-26T07:43:21.723Z,62.40
2018-03-26T07:44:21.855Z,62.15
2018-03-26T07:45:22.007Z,62.15
2018-03-26T07:46:22.145Z,62.05
2018-03-26T07:47:22.282Z,61.87
2018-03-26T07:48:22.427Z,61.48
2018-03-26T07:49:22.572Z,61.87
2018-03-26T07:50:22.702Z,62.05
2018-03-26T07:51:22.842Z,61.68
2018-03-26T07:52:22.974Z,61.65
2018-03-26T07:53:23.131Z,62.02
2018-03-26T07:54:23.264Z,61.96
2018-03-26T07:55:23.402Z,61.96
2018-03-26T07:56:23.536Z,61.74
2018-03-26T07:57:23.696Z,62.12
2018-03-26T07:58:24.612Z,62.31
2018-03-26T07:59:24.018Z,61.96
2018-03-26T08:00:24.174Z,61.58
2018-03-26T08:01:24.306Z,61.96
2018-03-26T08:02:24.443Z,62.21
2018-03-26T08:03:24.592Z,62.12
2018-03-26T08:04:24.729Z,62.21
2018-03-26T08:05:24.857Z,62.21
2018-03-26T08:06:24.991Z,62.12
2018-03-26T08:07:25.131Z,62.21
2018-03-26T08:08:25.289Z,62.59
2018-03-26T08:09:25.421Z,62.50
2018-03-26T08:10:25.569Z,63.17
2018-03-26T08:11:25.769Z,62.97
2018-03-26T08:12:25.905Z,62.69
2018-03-26T08:13:25.923Z,62.59
2018-03-26T08:14:26.060Z,62.88
2018-03-26T08:15:26.210Z,63.07
2018-03-26T08:16:26.443Z,63.64
2018-03-26T08:17:26.451Z,63.92
2018-03-26T08:18:26.585Z,64.37
2018-03-26T08:19:26.738Z,65.60
2018-03-26T08:20:26.870Z,65.03
2018-03-26T08:21:27.006Z,65.41
2018-03-26T08:22:27.137Z,65.50
2018-03-26T08:23:27.274Z,65.69
2018-03-26T08:24:27.405Z,65.03
2018-03-26T08:25:27.543Z,65.12
2018-03-26T08:26:27.678Z,65.12
2018-03-26T08:27:27.813Z,65.06
2018-03-26T08:28:27.950Z,64.21
2018-03-26T08:29:28.086Z,64.30
2018-03-26T08:30:28.259Z,64.21
2018-03-26T08:31:28.392Z,64.30
2018-03-26T08:32:28.527Z,63.54
2018-03-26T08:33:28.663Z,63.73
2018-03-26T08:34:28.797Z,62.97
2018-03-26T08:35:28.933Z,62.69
2018-03-26T08:36:29.125Z,62.31
2018-03-26T08:37:29.212Z,62.62
2018-03-26T08:38:29.345Z,62.69
2018-03-26T08:39:29.485Z,62.53
2018-03-26T08:40:29.618Z,62.05
2018-03-26T08:41:29.758Z,62.05
2018-03-26T08:42:30.034Z,62.34
2018-03-26T08:43:30.096Z,62.24
2018-03-26T08:44:30.219Z,62.24
2018-03-26T08:45:30.357Z,62.72
2018-03-26T08:46:30.505Z,63.01
2018-03-26T08:47:30.635Z,63.10
2018-03-26T08:48:30.762Z,63.10
2018-03-26T08:49:30.902Z,62.91
2018-03-26T08:50:31.038Z,62.81
2018-03-26T08:51:31.175Z,62.24
2018-03-26T08:52:31.312Z,62.34
2018-03-26T08:53:31.456Z,62.72
2018-03-26T08:54:31.578Z,63.01
2018-03-26T08:55:31.711Z,63.29
2018-03-26T08:56:31.846Z,63.10
2018-03-26T08:57:31.976Z,62.72
2018-03-26T08:58:32.115Z,62.72
2018-03-26T08:59:32.241Z,62.81
2018-03-26T09:00:32.373Z,61.96
2018-03-26T09:01:32.511Z,62.81
2018-03-26T09:02:32.647Z,63.10
2018-03-26T09:03:32.777Z,62.72
2018-03-26T09:04:32.914Z,62.15
2018-03-26T09:05:33.052Z,62.15
2018-03-26T09:06:33.185Z,63.01
2018-03-26T09:07:33.322Z,62.72
2018-03-26T09:08:33.459Z,63.01
2018-03-26T09:09:33.594Z,63.10
2018-03-26T09:10:33.730Z,63.10
2018-03-26T09:11:33.896Z,62.91
2018-03-26T09:12:34.055Z,62.43
2018-03-26T09:13:34.192Z,63.10
2018-03-26T09:14:34.983Z,62.34
2018-03-26T09:15:34.449Z,62.27
2018-03-26T09:16:34.587Z,62.18
2018-03-26T09:17:34.731Z,61.90
2018-03-26T09:18:34.857Z,61.99
2018-03-26T09:19:34.988Z,62.18
2018-03-26T09:20:35.119Z,62.18
2018-03-26T09:21:35.258Z,62.37
2018-03-26T09:22:35.394Z,62.18
2018-03-26T09:23:35.528Z,62.43
2018-03-26T09:24:35.661Z,62.08
2018-03-26T09:25:35.796Z,62.18
2018-03-26T09:26:35.928Z,62.34
2018-03-26T09:27:36.064Z,62.15
2018-03-26T09:28:36.199Z,62.15
2018-03-26T09:29:36.335Z,62.27
2018-03-26T09:30:36.473Z,62.27
2018-03-26T09:31:36.613Z,62.05
2018-03-26T09:32:36.745Z,62.56
2018-03-26T09:33:36.879Z,62.08
2018-03-26T09:34:37.014Z,61.96
2018-03-26T09:35:37.154Z,62.65
2018-03-26T09:36:37.282Z,62.05
2018-03-26T09:37:37.417Z,62.27
2018-03-26T09:38:37.552Z,63.01
2018-03-26T09:39:37.689Z,62.05
2018-03-26T09:40:37.856Z,61.90
2018-03-26T09:41:37.982Z,62.72
2018-03-26T09:42:38.111Z,62.81
2018-03-26T09:43:38.991Z,62.91
2018-03-26T09:44:38.410Z,62.72
2018-03-26T09:45:38.548Z,62.91
2018-03-26T09:46:38.682Z,63.48
2018-03-26T09:47:38.817Z,64.43
2018-03-26T09:48:38.960Z,64.24
2018-03-26T09:49:39.100Z,65.06
2018-03-26T09:50:39.241Z,65.35
2018-03-26T09:51:39.367Z,64.87
2018-03-26T09:52:39.502Z,65.35
2018-03-26T09:53:39.640Z,65.63
2018-03-26T09:54:39.783Z,65.63
2018-03-26T09:55:39.923Z,64.97
2018-03-26T09:56:40.067Z,65.06
2018-03-26T09:57:40.213Z,64.78
2018-03-26T09:58:40.346Z,64.49
2018-03-26T09:59:40.477Z,65.54
2018-03-26T10:00:40.615Z,65.63
2018-03-26T10:01:40.773Z,66.11
2018-03-26T10:02:40.886Z,65.82
2018-03-26T10:03:41.018Z,66.11
2018-03-26T10:04:41.156Z,66.30
2018-03-26T10:05:41.302Z,66.87
2018-03-26T10:06:41.440Z,67.06
2018-03-26T10:07:41.570Z,66.77
2018-03-26T10:08:41.710Z,67.63
2018-03-26T10:09:41.847Z,67.59
2018-03-26T10:10:41.980Z,67.15
2018-03-26T10:11:42.114Z,67.06
2018-03-26T10:12:42.272Z,66.77
2018-03-26T10:13:42.406Z,66.77
2018-03-26T10:14:42.550Z,66.77
2018-03-26T10:15:42.683Z,66.42
2018-03-26T10:16:42.812Z,66.14
2018-03-26T10:17:42.964Z,65.86
2018-03-26T10:18:43.125Z,65.47
2018-03-26T10:19:43.264Z,66.11
2018-03-26T10:20:43.396Z,66.20
2018-03-26T10:21:43.564Z,66.49
2018-03-26T10:22:43.693Z,66.52
2018-03-26T10:23:43.834Z,65.86
2018-03-26T10:24:43.983Z,65.95
2018-03-26T10:25:44.131Z,65.86
2018-03-26T10:26:44.301Z,66.05
2018-03-26T10:27:45.062Z,66.33
2018-03-26T10:28:44.587Z,66.71
2018-03-26T10:29:44.748Z,66.33
2018-03-26T10:30:44.948Z,66.61
2018-03-26T10:31:44.957Z,66.24
2018-03-26T10:32:45.093Z,65.86
2018-03-26T10:33:45.238Z,65.86
2018-03-26T10:34:45.375Z,65.86
2018-03-26T10:35:47.060Z,65.67
2018-03-26T10:36:45.692Z,65.32
2018-03-26T10:37:45.844Z,64.72
2018-03-26T10:38:45.981Z,64.62
2018-03-26T10:39:46.130Z,64.53
2018-03-26T10:40:46.266Z,65.09
2018-03-26T10:41:46.435Z,65.00
2018-03-26T10:42:46.567Z,64.90
2018-03-26T10:43:46.700Z,64.72
2018-03-26T10:44:46.835Z,65.19
2018-03-26T10:45:47.020Z,65.19
2018-03-26T10:46:47.114Z,64.14
2018-03-26T10:47:47.254Z,64.62
2018-03-26T10:48:47.394Z,65.22
2018-03-26T10:49:47.553Z,64.94
2018-03-26T10:50:47.684Z,64.37
2018-03-26T10:51:47.821Z,63.51
2018-03-26T10:52:47.980Z,62.65
2018-03-26T10:53:48.109Z,61.90
2018-03-26T10:54:48.273Z,62.37
2018-03-26T10:55:48.420Z,62.40
2018-03-26T10:56:48.547Z,62.12
2018-03-26T10:57:48.713Z,62.02
2018-03-26T10:58:48.856Z,61.45
2018-03-26T10:59:48.992Z,59.74
2018-03-26T11:00:49.129Z,59.01
2018-03-26T11:01:49.278Z,59.20
2018-03-26T11:02:49.418Z,59.29
2018-03-26T11:03:49.565Z,58.06
2018-03-26T11:04:49.700Z,57.04
2018-03-26T11:05:49.887Z,56.09
2018-03-26T11:06:50.002Z,55.51
2018-03-26T11:07:50.136Z,55.16
2018-03-26T11:08:50.273Z,54.21
2018-03-26T11:09:50.430Z,53.95
2018-03-26T11:10:50.563Z,52.57
2018-03-26T11:11:50.702Z,50.12
2018-03-26T11:12:50.849Z,47.87
2018-03-26T11:13:50.995Z,45.89
2018-03-26T11:14:51.130Z,44.38
2018-03-26T11:15:51.267Z,42.11
2018-03-26T11:16:51.411Z,41.65
2018-03-26T11:17:51.553Z,40.58
2018-03-26T11:18:51.695Z,40.09
2018-03-26T11:19:51.837Z,40.84
2018-03-26T11:20:51.987Z,41.15
2018-03-26T11:21:52.125Z,41.19
2018-03-26T11:22:52.268Z,38.79
2018-03-26T11:23:52.416Z,37.68
2018-03-26T11:24:52.553Z,37.20
2018-03-26T11:25:52.696Z,36.24
2018-03-26T11:26:52.846Z,35.67
2018-03-26T11:27:52.986Z,36.30
2018-03-26T11:28:53.129Z,37.24
2018-03-26T11:29:53.278Z,37.45
2018-03-26T11:30:53.424Z,37.01
2018-03-26T11:31:53.568Z,36.05
2018-03-26T11:32:54.245Z,36.30
2018-03-26T11:33:53.921Z,36.98
2018-03-26T11:34:54.065Z,37.41
2018-03-26T11:35:54.205Z,39.48
2018-03-26T11:36:54.347Z,41.49
2018-03-26T11:37:54.484Z,42.50
2018-03-26T11:38:54.646Z,44.29
2018-03-26T11:39:54.790Z,45.61
2018-03-26T11:40:54.938Z,46.27
2018-03-26T11:41:55.086Z,47.68
2018-03-26T11:42:55.229Z,47.78
2018-03-26T11:43:55.372Z,48.35
2018-03-26T11:44:55.513Z,49.78
2018-03-26T11:45:55.672Z,49.95
2018-03-26T11:46:55.822Z,50.52
2018-03-26T11:47:55.967Z,51.18
2018-03-26T11:48:56.117Z,51.45
2018-03-26T11:49:56.258Z,51.92
2018-03-26T11:50:56.402Z,51.85
2018-03-26T11:51:56.545Z,51.28
2018-03-26T11:52:56.685Z,51.47
2018-03-26T11:53:56.823Z,51.28
2018-03-26T11:54:56.957Z,50.45
2018-03-26T11:55:57.102Z,51.40
2018-03-26T11:56:57.247Z,50.16
2018-03-26T11:57:57.389Z,49.68
2018-03-26T11:58:57.531Z,49.30
2018-03-26T11:59:57.688Z,48.92
2018-03-26T12:00:57.815Z,48.85
2018-03-26T12:01:57.960Z,48.47
2018-03-26T12:02:58.101Z,48.66
2018-03-26T12:03:58.245Z,48.66
2018-03-26T12:04:58.384Z,48.07
2018-03-26T12:05:58.527Z,48.73
2018-03-26T12:06:58.668Z,49.49
2018-03-26T12:07:58.812Z,49.40
2018-03-26T12:08:58.949Z,50.16
2018-03-26T12:09:59.095Z,49.95
2018-03-26T12:10:59.228Z,49.85
2018-03-26T12:11:59.372Z,50.13
2018-03-26T12:12:59.512Z,50.80
2018-03-26T12:13:59.656Z,51.09
2018-03-26T12:14:59.807Z,51.56
2018-03-26T12:15:59.941Z,51.64
2018-03-26T12:17:00.081Z,52.01
2018-03-26T12:18:00.218Z,52.01
2018-03-26T12:19:00.357Z,51.82
2018-03-26T12:20:00.524Z,52.11
2018-03-26T12:21:00.661Z,52.11
2018-03-26T12:22:00.799Z,52.87
2018-03-26T12:23:00.936Z,53.35
2018-03-26T12:24:01.105Z,54.88
2018-03-26T12:25:01.238Z,54.18
2018-03-26T12:26:01.387Z,54.56
2018-03-26T12:27:01.521Z,54.18
2018-03-26T12:28:01.672Z,55.32
2018-03-26T12:29:01.907Z,55.51
2018-03-26T12:30:01.930Z,55.70
2018-03-26T12:31:02.106Z,56.02
2018-03-26T12:32:02.234Z,54.04
2018-03-26T12:33:02.343Z,52.55
2018-03-26T12:34:02.482Z,51.23
2018-03-26T12:35:02.625Z,50.09
2018-03-26T12:36:02.783Z,48.30
2018-03-26T12:37:02.916Z,46.27
2018-03-26T12:38:03.055Z,44.43
2018-03-26T12:39:03.193Z,46.13
2018-03-26T12:40:03.338Z,45.63
2018-03-26T12:41:03.477Z,46.48
2018-03-26T12:42:03.617Z,47.80
2018-03-26T12:43:03.754Z,49.68
2018-03-26T12:44:03.937Z,51.18
2018-03-26T12:45:04.167Z,51.76
2018-03-26T12:46:04.259Z,51.85
2018-03-26T12:47:04.329Z,52.80
2018-03-26T12:48:04.471Z,53.00
2018-03-26T12:49:04.612Z,53.47
2018-03-26T12:50:04.750Z,53.64
2018-03-26T12:51:04.891Z,53.73
2018-03-26T12:52:05.033Z,54.02
2018-03-26T12:53:05.176Z,54.21
2018-03-26T12:54:05.310Z,54.78